2008 KAMBA (2008065S12096)


On this page: IBTrACS data - Map and Plots - Positions - Intensities - Original source data

Summary

Start Mar 5
End Mar 14
Basin SI
LMI 115 kt
Sources jtwc_sh
reunion
In WMO? Yes
Previous storm 2008 JOKWE (SI)
Previous in basin 2008 JOKWE (SI)
Concurrent storms 2008 OPHELIA (SI)
2008 JOKWE (SI)
2008 KAMBA (SI)
Next in basin 2008 LOLA (SI)
Next storm 2008 LOLA (SI)

top of page IBTrACS Data: File Access

top of page HURSAT Data: File Access

Image of storm

top of page Plots:

Map of storm track will not appear if FTP is down
Time series of cyclone Maximum Sustained Wind will not appear if FTP is down
Time series of cyclone Minimum Central Pressure will not appear if FTP is down

top of page Track Data:Position

jtwc_sh reunion
Date Lat Lon Lat Lon
2008-03-05 06:00:00 -11.8 96.0
2008-03-05 12:00:00 -12.0 94.6
2008-03-05 18:00:00 -12.1 93.2
2008-03-06 00:00:00 -12.6 91.7 -12.2 92.0
2008-03-06 06:00:00 -12.6 91.0 -12.3 91.1
2008-03-06 12:00:00 -12.5 90.3 -12.3 90.4
2008-03-06 18:00:00 -12.4 89.6 -12.4 89.7
2008-03-07 00:00:00 -12.2 88.8 -12.3 89.0
2008-03-07 06:00:00 -12.1 88.2 -11.8 88.1
2008-03-07 12:00:00 -12.0 88.0 -11.8 88.1
2008-03-07 18:00:00 -12.1 87.7 -12.1 87.9
2008-03-08 00:00:00 -12.3 87.3 -12.3 87.5
2008-03-08 06:00:00 -12.5 86.9 -12.5 87.2
2008-03-08 12:00:00 -12.8 86.3 -12.7 86.8
2008-03-08 18:00:00 -13.2 85.5 -13.1 85.7
2008-03-09 00:00:00 -13.7 84.4 -13.7 84.3
2008-03-09 06:00:00 -14.1 83.2 -14.3 83.0
2008-03-09 12:00:00 -14.6 82.0 -14.7 81.9
2008-03-09 18:00:00 -15.2 80.9 -15.2 80.8
2008-03-10 00:00:00 -15.9 79.8 -15.9 79.7
2008-03-10 06:00:00 -16.9 79.0 -16.9 79.0
2008-03-10 12:00:00 -18.1 78.5 -18.2 78.5
2008-03-10 18:00:00 -19.4 78.2 -19.4 78.2
2008-03-11 00:00:00 -20.7 78.1 -20.7 78.0
2008-03-11 06:00:00 -22.0 78.1 -22.1 78.0
jtwc_sh reunion
2008-03-11 12:00:00 -23.2 78.2 -23.3 78.1
2008-03-11 18:00:00 -24.3 78.4 -23.8 78.6
2008-03-12 00:00:00 -25.1 79.2 -24.3 79.3
2008-03-12 06:00:00 -25.6 80.1 -24.7 80.0
2008-03-12 12:00:00 -25.6 80.2
2008-03-12 18:00:00 -26.4 79.5
2008-03-13 00:00:00 -27.7 78.7
2008-03-13 06:00:00 -29.8 78.6
2008-03-13 12:00:00 -30.9 78.0
2008-03-13 18:00:00 -31.3 77.6
2008-03-14 00:00:00 -31.5 77.3
2008-03-14 06:00:00 -31.4 77.0

top of pageTrack Data:Intensity

jtwc_sh reunion
Date Wind Pres Wind Pres
2008-03-05 06:00:00 20. 1006.
2008-03-05 12:00:00 20. 1005.
2008-03-05 18:00:00 20. 1005.
2008-03-06 00:00:00 15. 1010. 25. 1004.
2008-03-06 06:00:00 20. 1007. 25. 1003.
2008-03-06 12:00:00 25. 1005. 25. 1002.
2008-03-06 18:00:00 25. 1004. 25. 1000.
2008-03-07 00:00:00 30. 1000. 27. 999.
2008-03-07 06:00:00 30. 1000. 30. 998.
2008-03-07 12:00:00 40. 996. 30. 997.
2008-03-07 18:00:00 45. 989. 30. 997.
2008-03-08 00:00:00 50. 985. 30. 996.
2008-03-08 06:00:00 55. 982. 30. 997.
2008-03-08 12:00:00 55. 982. 30. 997.
2008-03-08 18:00:00 55. 982. 35. 995.
2008-03-09 00:00:00 60. 978. 37. 994.
2008-03-09 06:00:00 60. 978. 45. 987.
2008-03-09 12:00:00 65. 974. 52. 982.
2008-03-09 18:00:00 70. 970. 60. 975.
2008-03-10 00:00:00 85. 959. 68. 965.
2008-03-10 06:00:00 90. 956. 80. 955.
2008-03-10 12:00:00 110. 941. 100. 930.
2008-03-10 18:00:00 115. 937. 100. 930.
2008-03-11 00:00:00 115. 937. 100. 930.
2008-03-11 06:00:00 100. 948. 90. 943.
jtwc_sh reunion
2008-03-11 12:00:00 80. 963. 70. 965.
2008-03-11 18:00:00 70. 970. 50. 985.
2008-03-12 00:00:00 45. 989. 40. 992.
2008-03-12 06:00:00 30. 1000. 35. 998.
2008-03-12 12:00:00 35. 1003.
2008-03-12 18:00:00 30. 1007.
2008-03-13 00:00:00 27. 1008.
2008-03-13 06:00:00 25. 1010.
2008-03-13 12:00:00 30. 1012.
2008-03-13 18:00:00 30. 1014.
2008-03-14 00:00:00 30. 1015.
2008-03-14 06:00:00 30. 1016.

top of page Links to source data

Source Source file Format
jtwc_sh bsh232008.txt ATCF
reunion Best-Tracks-NewWMOFormat.txt:Line=2345:KAMBA WMO (old format)